createdAt,value
2022-12-09T00:00:08.167Z,1210.3350
2022-12-09T00:00:19.711Z,1210.3350
2022-12-09T00:00:31.066Z,1211.4340
2022-12-09T00:00:42.223Z,1207.0520
2022-12-09T00:00:53.320Z,1204.8740
2022-12-09T00:01:04.964Z,1210.3350
2022-12-09T00:01:16.390Z,1209.2390
2022-12-09T00:01:27.461Z,1212.5341
2022-12-09T00:01:38.690Z,1202.7030
2022-12-09T00:01:49.841Z,1207.0520
2022-12-09T00:02:01.139Z,1209.2390
2022-12-09T00:02:12.444Z,1207.0520
2022-12-09T00:02:23.779Z,1205.9620
2022-12-09T00:02:35.561Z,1207.0520
2022-12-09T00:02:47.133Z,1202.7030
2022-12-09T00:02:58.408Z,1209.2390
2022-12-09T00:03:09.964Z,1205.9620
2022-12-09T00:03:23.853Z,1202.7030
2022-12-09T00:03:35.579Z,1202.7030
2022-12-09T00:03:47.218Z,1202.7030
2022-12-09T00:03:58.982Z,1199.4611
2022-12-09T00:04:10.615Z,1202.7030
2022-12-09T00:04:22.211Z,1200.5400
2022-12-09T00:04:33.821Z,1207.0520
2022-12-09T00:04:45.302Z,1200.5400
2022-12-09T00:04:57.182Z,1197.3090
2022-12-09T00:05:08.621Z,1197.3090
2022-12-09T00:05:20.133Z,1202.7030
2022-12-09T00:05:31.450Z,1202.7030
2022-12-09T00:05:42.776Z,1212.5341
2022-12-09T00:05:53.927Z,1196.2371
2022-12-09T00:06:05.147Z,1204.8740
2022-12-09T00:06:16.472Z,1198.3840
2022-12-09T00:06:27.704Z,1194.0970
2022-12-09T00:06:38.854Z,1200.5400
2022-12-09T00:06:50.145Z,1208.1450
2022-12-09T00:07:01.327Z,1202.7030
2022-12-09T00:07:12.382Z,1205.9620
2022-12-09T00:07:23.563Z,1205.9620
2022-12-09T00:07:34.755Z,1202.7030
2022-12-09T00:07:46.018Z,1205.9620
2022-12-09T00:07:57.306Z,1202.7030
2022-12-09T00:08:08.685Z,1197.3090
2022-12-09T00:08:20.003Z,1200.5400
2022-12-09T00:08:31.193Z,1200.5400
2022-12-09T00:08:42.508Z,1200.5400
2022-12-09T00:08:53.722Z,1204.8740
2022-12-09T00:09:04.928Z,1201.6200
2022-12-09T00:09:16.160Z,1207.0520
2022-12-09T00:09:27.455Z,1205.9620
2022-12-09T00:09:38.742Z,1202.7030
2022-12-09T00:09:49.830Z,1200.5400
2022-12-09T00:10:01.067Z,1204.8740
2022-12-09T00:10:12.369Z,1197.3090
2022-12-09T00:10:23.765Z,1200.5400
2022-12-09T00:10:35.147Z,1207.0520
2022-12-09T00:10:46.197Z,1202.7030
2022-12-09T00:10:57.516Z,1202.7030
2022-12-09T00:11:08.729Z,1209.2390
2022-12-09T00:11:19.800Z,1200.5400
2022-12-09T00:11:30.854Z,1201.6200
2022-12-09T00:11:41.925Z,1207.0520
2022-12-09T00:11:53.072Z,1200.5400
2022-12-09T00:12:04.855Z,1202.7030
2022-12-09T00:12:16.078Z,1205.9620
2022-12-09T00:12:27.170Z,1211.4340
2022-12-09T00:12:38.424Z,1202.7030
2022-12-09T00:12:49.655Z,1213.6360
2022-12-09T00:13:00.922Z,1209.2390
2022-12-09T00:13:12.258Z,1204.8740
2022-12-09T00:13:23.330Z,1204.8740
2022-12-09T00:13:34.572Z,1207.0520
2022-12-09T00:13:45.884Z,1211.4340
2022-12-09T00:13:56.935Z,1209.2390
2022-12-09T00:14:08.237Z,1205.9620
2022-12-09T00:14:19.299Z,1210.3350
2022-12-09T00:14:30.496Z,1211.4340
2022-12-09T00:14:41.614Z,1210.3350
2022-12-09T00:14:52.861Z,1209.2390
2022-12-09T00:15:03.988Z,1207.0520
2022-12-09T00:15:15.026Z,1209.2390
2022-12-09T00:15:26.299Z,1216.9550
2022-12-09T00:15:37.446Z,1208.1450
2022-12-09T00:15:48.794Z,1215.8470
2022-12-09T00:16:00.007Z,1209.2390
2022-12-09T00:16:11.388Z,1213.6360
2022-12-09T00:16:22.599Z,1213.6360
2022-12-09T00:16:33.875Z,1214.7410
2022-12-09T00:16:44.985Z,1213.6360
2022-12-09T00:16:56.153Z,1210.3350
2022-12-09T00:17:07.680Z,1208.1450
2022-12-09T00:17:19.023Z,1213.6360
2022-12-09T00:17:30.472Z,1212.5341
2022-12-09T00:17:41.799Z,1218.0660
2022-12-09T00:17:52.843Z,1209.2390
2022-12-09T00:18:03.899Z,1214.7410
2022-12-09T00:18:14.974Z,1214.7410
2022-12-09T00:18:26.088Z,1213.6360
2022-12-09T00:18:37.214Z,1213.6360
2022-12-09T00:18:48.425Z,1213.6360
2022-12-09T00:18:59.663Z,1219.1780
2022-12-09T00:19:11.058Z,1220.2930
2022-12-09T00:19:22.276Z,1218.0660
2022-12-09T00:19:33.398Z,1214.7410
2022-12-09T00:19:44.432Z,1220.2930
2022-12-09T00:19:55.625Z,1222.5270
2022-12-09T00:20:07.311Z,1223.6479
2022-12-09T00:20:18.914Z,1220.2930
2022-12-09T00:20:30.249Z,1218.0660
2022-12-09T00:20:41.544Z,1220.2930
2022-12-09T00:20:52.599Z,1227.0220
2022-12-09T00:21:03.648Z,1221.4091
2022-12-09T00:21:14.751Z,1228.1510
2022-12-09T00:21:25.912Z,1225.8950
2022-12-09T00:21:37.224Z,1228.1510
2022-12-09T00:21:48.774Z,1222.5270
2022-12-09T00:22:00.001Z,1224.7710
2022-12-09T00:22:11.388Z,1223.6479
2022-12-09T00:22:22.491Z,1229.2820
2022-12-09T00:22:33.573Z,1227.0220
2022-12-09T00:22:44.637Z,1232.6870
2022-12-09T00:22:55.693Z,1230.4150
2022-12-09T00:23:07.075Z,1230.4150
2022-12-09T00:23:18.254Z,1231.5500
2022-12-09T00:23:29.318Z,1231.5500
2022-12-09T00:23:40.345Z,1233.8260
2022-12-09T00:23:51.421Z,1236.1110
2022-12-09T00:24:02.517Z,1228.1510
2022-12-09T00:24:13.791Z,1234.9680
2022-12-09T00:24:24.824Z,1233.8260
2022-12-09T00:24:35.895Z,1233.8260
2022-12-09T00:24:47.352Z,1228.1510
2022-12-09T00:24:58.483Z,1240.7061
2022-12-09T00:25:09.740Z,1238.4041
2022-12-09T00:25:20.777Z,1231.5500
2022-12-09T00:25:31.903Z,1237.2570
2022-12-09T00:25:42.980Z,1247.6639
2022-12-09T00:25:54.126Z,1238.4041
2022-12-09T00:26:05.493Z,1229.2820
2022-12-09T00:26:16.765Z,1243.0170
2022-12-09T00:26:28.071Z,1245.3361
2022-12-09T00:26:39.117Z,1241.8600
2022-12-09T00:26:50.174Z,1243.0170
2022-12-09T00:27:01.404Z,1237.2570
2022-12-09T00:27:12.498Z,1253.5210
2022-12-09T00:27:23.632Z,1243.0170
2022-12-09T00:27:34.655Z,1243.0170
2022-12-09T00:27:45.806Z,1245.3361
2022-12-09T00:27:56.843Z,1244.1750
2022-12-09T00:28:07.911Z,1248.8311
2022-12-09T00:28:19.057Z,1254.6990
2022-12-09T00:28:30.187Z,1257.0620
2022-12-09T00:28:41.533Z,1254.6990
2022-12-09T00:28:52.864Z,1251.1720
2022-12-09T00:29:04.228Z,1247.6639
2022-12-09T00:29:15.343Z,1253.5210
2022-12-09T00:29:26.627Z,1247.6639
2022-12-09T00:29:37.736Z,1254.6990
2022-12-09T00:29:49.075Z,1254.6990
2022-12-09T00:30:00.207Z,1252.3450
2022-12-09T00:30:11.916Z,1255.8800
2022-12-09T00:30:23.527Z,1251.1720
2022-12-09T00:30:34.798Z,1253.5210
2022-12-09T00:30:46.004Z,1253.5210
2022-12-09T00:30:57.213Z,1253.5210
2022-12-09T00:31:08.422Z,1264.2050
2022-12-09T00:31:19.645Z,1259.4340
2022-12-09T00:31:31.507Z,1253.5210
2022-12-09T00:31:42.834Z,1252.3450
2022-12-09T00:31:54.099Z,1264.2050
2022-12-09T00:32:05.716Z,1255.8800
2022-12-09T00:32:17.048Z,1258.2469
2022-12-09T00:32:28.462Z,1258.2469
2022-12-09T00:32:39.935Z,1258.2469
2022-12-09T00:32:51.284Z,1260.6230
2022-12-09T00:33:02.732Z,1259.4340
2022-12-09T00:33:14.063Z,1265.4030
2022-12-09T00:33:25.159Z,1261.8149
2022-12-09T00:33:36.215Z,1264.2050
2022-12-09T00:33:47.269Z,1260.6230
2022-12-09T00:33:58.416Z,1269.0110
2022-12-09T00:34:09.538Z,1254.6990
2022-12-09T00:34:20.646Z,1263.0090
2022-12-09T00:34:32.037Z,1266.6030
2022-12-09T00:34:43.109Z,1267.8060
2022-12-09T00:34:54.493Z,1267.8060
2022-12-09T00:35:06.015Z,1271.4290
2022-12-09T00:35:17.062Z,1265.4030
2022-12-09T00:35:28.172Z,1265.4030
2022-12-09T00:35:39.378Z,1265.4030
2022-12-09T00:35:50.572Z,1264.2050
2022-12-09T00:36:01.684Z,1267.8060
2022-12-09T00:36:13.123Z,1266.6030
2022-12-09T00:36:24.270Z,1260.6230
2022-12-09T00:36:35.429Z,1269.0110
2022-12-09T00:36:46.564Z,1269.0110
2022-12-09T00:36:57.908Z,1277.5120
2022-12-09T00:37:09.146Z,1276.2910
2022-12-09T00:37:20.275Z,1266.6030
2022-12-09T00:37:31.363Z,1269.0110
2022-12-09T00:37:42.682Z,1275.0720
2022-12-09T00:37:54.014Z,1266.6030
2022-12-09T00:38:05.472Z,1276.2910
2022-12-09T00:38:16.573Z,1272.6410
2022-12-09T00:38:27.639Z,1278.7360
2022-12-09T00:38:39.228Z,1272.6410
2022-12-09T00:38:50.639Z,1269.0110
2022-12-09T00:39:02.020Z,1276.2910
2022-12-09T00:39:13.288Z,1281.1899
2022-12-09T00:39:24.471Z,1287.3669
2022-12-09T00:39:35.790Z,1276.2910
2022-12-09T00:39:47.320Z,1271.4290
2022-12-09T00:39:58.595Z,1281.1899
2022-12-09T00:40:10.066Z,1287.3669
2022-12-09T00:40:21.738Z,1282.4210
2022-12-09T00:40:32.893Z,1273.8550
2022-12-09T00:40:44.009Z,1282.4210
2022-12-09T00:40:55.204Z,1277.5120
2022-12-09T00:41:06.408Z,1282.4210
2022-12-09T00:41:17.584Z,1282.4210
2022-12-09T00:41:28.873Z,1276.2910
2022-12-09T00:41:40.016Z,1282.4210
2022-12-09T00:41:51.239Z,1281.1899
2022-12-09T00:42:02.747Z,1286.1270
2022-12-09T00:42:14.024Z,1289.8550
2022-12-09T00:42:25.285Z,1286.1270
2022-12-09T00:42:36.325Z,1286.1270
2022-12-09T00:42:47.742Z,1287.3669
2022-12-09T00:42:58.838Z,1297.3760
2022-12-09T00:43:09.903Z,1291.1030
2022-12-09T00:43:21.266Z,1294.8590
2022-12-09T00:43:32.324Z,1291.1030
2022-12-09T00:43:43.772Z,1288.6100
2022-12-09T00:43:55.109Z,1288.6100
2022-12-09T00:44:06.572Z,1288.6100
2022-12-09T00:44:17.941Z,1284.8890
2022-12-09T00:44:29.135Z,1288.6100
2022-12-09T00:44:40.189Z,1291.1030
2022-12-09T00:44:51.366Z,1281.1899
2022-12-09T00:45:02.522Z,1291.1030
2022-12-09T00:45:13.556Z,1299.9030
2022-12-09T00:45:24.662Z,1296.1169
2022-12-09T00:45:35.833Z,1292.3521
2022-12-09T00:45:46.990Z,1291.1030
2022-12-09T00:45:58.324Z,1301.1700
2022-12-09T00:46:09.627Z,1291.1030
2022-12-09T00:46:20.870Z,1296.1169
2022-12-09T00:46:32.388Z,1301.1700
2022-12-09T00:46:44.061Z,1298.6379
2022-12-09T00:46:55.485Z,1296.1169
2022-12-09T00:47:06.770Z,1296.1169
2022-12-09T00:47:18.127Z,1301.1700
2022-12-09T00:47:29.722Z,1296.1169
2022-12-09T00:47:41.024Z,1294.8590
2022-12-09T00:47:52.395Z,1298.6379
2022-12-09T00:48:03.660Z,1292.3521
2022-12-09T00:48:14.860Z,1301.1700
2022-12-09T00:48:26.217Z,1307.5420
2022-12-09T00:48:37.304Z,1301.1700
2022-12-09T00:48:48.600Z,1299.9030
2022-12-09T00:48:59.691Z,1299.9030
2022-12-09T00:49:11.002Z,1301.1700
2022-12-09T00:49:22.243Z,1301.1700
2022-12-09T00:49:33.300Z,1301.1700
2022-12-09T00:49:44.420Z,1304.9850
2022-12-09T00:49:55.816Z,1306.2620
2022-12-09T00:50:07.474Z,1304.9850
2022-12-09T00:50:18.767Z,1313.9760
2022-12-09T00:50:30.035Z,1303.7111
2022-12-09T00:50:41.241Z,1307.5420
2022-12-09T00:50:52.419Z,1304.9850
2022-12-09T00:51:03.450Z,1313.9760
2022-12-09T00:51:14.536Z,1298.6379
2022-12-09T00:51:25.714Z,1308.8240
2022-12-09T00:51:36.920Z,1303.7111
2022-12-09T00:51:48.007Z,1308.8240
2022-12-09T00:51:59.204Z,1310.1080
2022-12-09T00:52:10.414Z,1307.5420
2022-12-09T00:52:21.471Z,1312.6840
2022-12-09T00:52:32.665Z,1312.6840
2022-12-09T00:52:43.869Z,1321.7820
2022-12-09T00:52:54.900Z,1312.6840
2022-12-09T00:53:05.943Z,1313.9760
2022-12-09T00:53:17.043Z,1313.9760
2022-12-09T00:53:28.145Z,1307.5420
2022-12-09T00:53:39.189Z,1316.5680
2022-12-09T00:53:50.445Z,1315.2710
2022-12-09T00:54:01.617Z,1320.4750
2022-12-09T00:54:13.000Z,1311.3950
2022-12-09T00:54:24.647Z,1315.2710
2022-12-09T00:54:36.086Z,1315.2710
2022-12-09T00:54:47.901Z,1316.5680
2022-12-09T00:54:59.070Z,1316.5680
2022-12-09T00:55:10.311Z,1319.1700
2022-12-09T00:55:21.823Z,1313.9760
2022-12-09T00:55:33.248Z,1316.5680
2022-12-09T00:55:44.616Z,1324.4050
2022-12-09T00:55:55.949Z,1324.4050
2022-12-09T00:56:07.151Z,1315.2710
2022-12-09T00:56:18.330Z,1313.9760
2022-12-09T00:56:29.391Z,1320.4750
2022-12-09T00:56:40.454Z,1319.1700
2022-12-09T00:56:51.623Z,1321.7820
2022-12-09T00:57:02.893Z,1332.3350
2022-12-09T00:57:14.124Z,1329.6810
2022-12-09T00:57:25.284Z,1315.2710
2022-12-09T00:57:36.474Z,1319.1700
2022-12-09T00:57:47.822Z,1327.0380
2022-12-09T00:57:58.856Z,1323.0920
2022-12-09T00:58:09.933Z,1333.6660
2022-12-09T00:58:21.014Z,1324.4050
2022-12-09T00:58:32.097Z,1323.0920
2022-12-09T00:58:43.140Z,1331.0070
2022-12-09T00:58:54.461Z,1324.4050
2022-12-09T00:59:05.862Z,1321.7820
2022-12-09T00:59:17.005Z,1324.4050
2022-12-09T00:59:28.111Z,1335.0000
2022-12-09T00:59:39.511Z,1328.3580
2022-12-09T00:59:50.882Z,1329.6810
2022-12-09T01:00:02.094Z,1328.3580
2022-12-09T01:00:13.357Z,1331.0070
2022-12-09T01:00:24.514Z,1327.0380
2022-12-09T01:00:35.831Z,1323.0920
2022-12-09T01:00:46.934Z,1327.0380
2022-12-09T01:00:58.024Z,1329.6810
2022-12-09T01:01:09.669Z,1336.3361
2022-12-09T01:01:21.217Z,1329.6810
2022-12-09T01:01:32.981Z,1332.3350
2022-12-09T01:01:44.161Z,1327.0380
2022-12-09T01:01:55.586Z,1336.3361
2022-12-09T01:02:06.937Z,1332.3350
2022-12-09T01:02:18.138Z,1333.6660
2022-12-09T01:02:29.445Z,1319.1700
2022-12-09T01:02:40.947Z,1329.6810
2022-12-09T01:02:52.486Z,1335.0000
2022-12-09T01:03:04.024Z,1336.3361
2022-12-09T01:03:16.168Z,1329.6810
2022-12-09T01:03:27.714Z,1336.3361
2022-12-09T01:03:39.337Z,1325.7200
2022-12-09T01:03:50.992Z,1331.0070
2022-12-09T01:04:02.838Z,1339.0170
2022-12-09T01:04:14.319Z,1332.3350
2022-12-09T01:04:25.697Z,1332.3350
2022-12-09T01:04:37.368Z,1339.0170
2022-12-09T01:04:49.014Z,1335.0000
2022-12-09T01:05:00.425Z,1328.3580
2022-12-09T01:05:12.042Z,1327.0380
2022-12-09T01:05:23.565Z,1335.0000
2022-12-09T01:05:34.616Z,1339.0170
2022-12-09T01:05:45.882Z,1332.3350
2022-12-09T01:05:56.930Z,1335.0000
2022-12-09T01:06:08.292Z,1340.3610
2022-12-09T01:06:19.632Z,1333.6660
2022-12-09T01:06:31.002Z,1339.0170
2022-12-09T01:06:42.138Z,1340.3610
2022-12-09T01:06:53.351Z,1339.0170
2022-12-09T01:07:04.435Z,1332.3350
2022-12-09T01:07:15.651Z,1336.3361
2022-12-09T01:07:26.874Z,1336.3361
2022-12-09T01:07:38.181Z,1321.7820
2022-12-09T01:07:49.482Z,1340.3610
2022-12-09T01:08:00.596Z,1337.6750
2022-12-09T01:08:11.843Z,1343.0580
2022-12-09T01:08:23.194Z,1348.4850
2022-12-09T01:08:38.349Z,1339.0170
2022-12-09T01:08:51.465Z,1337.6750
2022-12-09T01:09:03.136Z,1324.4050
2022-12-09T01:09:14.739Z,1332.3350
2022-12-09T01:09:25.986Z,1325.7200
2022-12-09T01:09:37.186Z,1335.0000
2022-12-09T01:09:48.364Z,1335.0000
2022-12-09T01:09:59.464Z,1336.3361
2022-12-09T01:10:10.842Z,1339.0170
2022-12-09T01:10:22.809Z,1329.6810
2022-12-09T01:10:34.021Z,1337.6750
2022-12-09T01:10:45.294Z,1331.0070
2022-12-09T01:10:56.494Z,1332.3350
2022-12-09T01:11:07.643Z,1332.3350
2022-12-09T01:11:18.812Z,1336.3361
2022-12-09T01:11:29.964Z,1343.0580
2022-12-09T01:11:41.177Z,1343.0580
2022-12-09T01:11:52.305Z,1343.0580
2022-12-09T01:12:03.494Z,1337.6750
2022-12-09T01:12:14.705Z,1339.0170
2022-12-09T01:12:26.155Z,1343.0580
2022-12-09T01:12:37.589Z,1335.0000
2022-12-09T01:12:48.882Z,1337.6750
2022-12-09T01:13:00.276Z,1347.1240
2022-12-09T01:13:11.537Z,1340.3610
2022-12-09T01:13:22.836Z,1337.6750
2022-12-09T01:13:34.087Z,1337.6750
2022-12-09T01:13:45.213Z,1344.4110
2022-12-09T01:13:56.563Z,1343.0580
2022-12-09T01:14:07.888Z,1327.0380
2022-12-09T01:14:18.955Z,1340.3610
2022-12-09T01:14:30.146Z,1345.7660
2022-12-09T01:14:41.279Z,1345.7660
2022-12-09T01:14:52.508Z,1351.2150
2022-12-09T01:15:03.679Z,1348.4850
2022-12-09T01:15:14.940Z,1347.1240
2022-12-09T01:15:26.164Z,1341.7090
2022-12-09T01:15:37.393Z,1345.7660
2022-12-09T01:15:48.698Z,1327.0380
2022-12-09T01:16:00.054Z,1340.3610
2022-12-09T01:16:11.228Z,1340.3610
2022-12-09T01:16:22.529Z,1344.4110
2022-12-09T01:16:33.813Z,1339.0170
2022-12-09T01:16:45.031Z,1340.3610
2022-12-09T01:16:56.484Z,1336.3361
2022-12-09T01:17:07.677Z,1343.0580
2022-12-09T01:17:18.903Z,1344.4110
2022-12-09T01:17:30.447Z,1343.0580
2022-12-09T01:17:41.675Z,1344.4110
2022-12-09T01:17:53.195Z,1353.9550
2022-12-09T01:18:04.589Z,1341.7090
2022-12-09T01:18:15.822Z,1343.0580
2022-12-09T01:18:26.912Z,1345.7660
2022-12-09T01:18:38.019Z,1356.7070
2022-12-09T01:18:49.263Z,1345.7660
2022-12-09T01:19:00.459Z,1340.3610
2022-12-09T01:19:11.814Z,1343.0580
2022-12-09T01:19:23.030Z,1348.4850
2022-12-09T01:19:34.416Z,1348.4850
2022-12-09T01:19:45.725Z,1343.0580
2022-12-09T01:19:56.824Z,1345.7660
2022-12-09T01:20:08.187Z,1351.2150
2022-12-09T01:20:19.806Z,1340.3610
2022-12-09T01:20:31.032Z,1345.7660
2022-12-09T01:20:42.211Z,1359.4700
2022-12-09T01:20:53.238Z,1347.1240
2022-12-09T01:21:04.352Z,1345.7660
2022-12-09T01:21:15.467Z,1344.4110
2022-12-09T01:21:26.844Z,1344.4110
2022-12-09T01:21:37.916Z,1348.4850
2022-12-09T01:21:49.078Z,1341.7090
2022-12-09T01:22:00.573Z,1351.2150
2022-12-09T01:22:12.154Z,1347.1240
2022-12-09T01:22:23.297Z,1343.0580
2022-12-09T01:22:34.715Z,1349.8480
2022-12-09T01:22:46.037Z,1345.7660
2022-12-09T01:22:57.185Z,1349.8480
2022-12-09T01:23:08.546Z,1351.2150
2022-12-09T01:23:20.070Z,1337.6750
2022-12-09T01:23:31.453Z,1352.5840
2022-12-09T01:23:42.688Z,1345.7660
2022-12-09T01:23:53.748Z,1351.2150
2022-12-09T01:24:04.895Z,1343.0580
2022-12-09T01:24:16.118Z,1348.4850
2022-12-09T01:24:27.344Z,1347.1240
2022-12-09T01:24:38.552Z,1356.7070
2022-12-09T01:24:49.808Z,1348.4850
2022-12-09T01:25:00.948Z,1359.4700
2022-12-09T01:25:12.384Z,1340.3610
2022-12-09T01:25:23.695Z,1341.7090
2022-12-09T01:25:34.935Z,1347.1240
2022-12-09T01:25:45.988Z,1352.5840
2022-12-09T01:25:57.531Z,1348.4850
2022-12-09T01:26:08.739Z,1348.4850
2022-12-09T01:26:19.971Z,1348.4850
2022-12-09T01:26:31.181Z,1351.2150
2022-12-09T01:26:42.355Z,1356.7070
2022-12-09T01:26:53.571Z,1348.4850
2022-12-09T01:27:04.618Z,1349.8480
2022-12-09T01:27:15.720Z,1366.4280
2022-12-09T01:27:26.751Z,1349.8480
2022-12-09T01:27:38.095Z,1348.4850
2022-12-09T01:27:49.259Z,1351.2150
2022-12-09T01:28:00.556Z,1351.2150
2022-12-09T01:28:11.990Z,1348.4850
2022-12-09T01:28:23.169Z,1352.5840
2022-12-09T01:28:34.343Z,1355.3300
2022-12-09T01:28:45.521Z,1349.8480
2022-12-09T01:28:56.564Z,1358.0870
2022-12-09T01:29:07.955Z,1348.4850
2022-12-09T01:29:19.181Z,1349.8480
2022-12-09T01:29:30.443Z,1349.8480
2022-12-09T01:29:41.485Z,1348.4850
2022-12-09T01:29:52.657Z,1360.8560
2022-12-09T01:30:04.173Z,1348.4850
2022-12-09T01:30:15.959Z,1356.7070
2022-12-09T01:30:27.307Z,1349.8480
2022-12-09T01:30:38.643Z,1351.2150
2022-12-09T01:30:50.038Z,1349.8480
2022-12-09T01:31:01.241Z,1348.4850
2022-12-09T01:31:12.377Z,1359.4700
2022-12-09T01:31:23.540Z,1362.2450
2022-12-09T01:31:35.093Z,1360.8560
2022-12-09T01:31:46.262Z,1348.4850
2022-12-09T01:31:57.464Z,1352.5840
2022-12-09T01:32:08.976Z,1353.9550
2022-12-09T01:32:20.454Z,1348.4850
2022-12-09T01:32:31.847Z,1353.9550
2022-12-09T01:32:43.033Z,1352.5840
2022-12-09T01:32:54.496Z,1352.5840
2022-12-09T01:33:05.666Z,1359.4700
2022-12-09T01:33:16.824Z,1351.2150
2022-12-09T01:33:28.209Z,1359.4700
2022-12-09T01:33:39.269Z,1349.8480
2022-12-09T01:33:50.565Z,1351.2150
2022-12-09T01:34:02.155Z,1356.7070
2022-12-09T01:34:13.402Z,1347.1240
2022-12-09T01:34:24.659Z,1348.4850
2022-12-09T01:34:35.800Z,1351.2150
2022-12-09T01:34:47.113Z,1348.4850
2022-12-09T01:34:58.414Z,1351.2150
2022-12-09T01:35:09.843Z,1349.8480
2022-12-09T01:35:21.249Z,1359.4700
2022-12-09T01:35:32.475Z,1348.4850
2022-12-09T01:35:43.550Z,1355.3300
2022-12-09T01:35:54.768Z,1358.0870
2022-12-09T01:36:06.001Z,1359.4700
2022-12-09T01:36:17.445Z,1355.3300
2022-12-09T01:36:28.668Z,1343.0580
2022-12-09T01:36:40.284Z,1356.7070
2022-12-09T01:36:51.391Z,1356.7070
2022-12-09T01:37:02.435Z,1348.4850
2022-12-09T01:37:13.725Z,1352.5840
2022-12-09T01:37:24.917Z,1358.0870
2022-12-09T01:37:36.129Z,1358.0870
2022-12-09T01:37:47.480Z,1356.7070
2022-12-09T01:37:58.659Z,1353.9550
2022-12-09T01:38:10.114Z,1353.9550
2022-12-09T01:38:21.475Z,1355.3300
2022-12-09T01:38:32.592Z,1351.2150
2022-12-09T01:38:43.753Z,1355.3300
2022-12-09T01:38:54.912Z,1355.3300
2022-12-09T01:39:06.391Z,1359.4700
2022-12-09T01:39:17.851Z,1359.4700
2022-12-09T01:39:29.035Z,1358.0870
2022-12-09T01:39:40.087Z,1362.2450
2022-12-09T01:39:51.382Z,1353.9550
2022-12-09T01:40:02.708Z,1353.9550
2022-12-09T01:40:14.227Z,1353.9550
2022-12-09T01:40:25.254Z,1359.4700
2022-12-09T01:40:36.377Z,1348.4850
2022-12-09T01:40:47.664Z,1359.4700
2022-12-09T01:40:58.769Z,1353.9550
2022-12-09T01:41:10.078Z,1359.4700
2022-12-09T01:41:21.247Z,1352.5840
2022-12-09T01:41:32.269Z,1362.2450
2022-12-09T01:41:43.451Z,1362.2450
2022-12-09T01:41:54.881Z,1365.0310
2022-12-09T01:42:06.398Z,1367.8280
2022-12-09T01:42:17.502Z,1359.4700
2022-12-09T01:42:28.511Z,1356.7070
2022-12-09T01:42:39.826Z,1353.9550
2022-12-09T01:42:50.984Z,1362.2450
2022-12-09T01:43:02.183Z,1348.4850
2022-12-09T01:43:13.324Z,1355.3300
2022-12-09T01:43:24.489Z,1356.7070
2022-12-09T01:43:35.749Z,1353.9550
2022-12-09T01:43:47.154Z,1363.6360
2022-12-09T01:43:58.210Z,1365.0310
2022-12-09T01:44:09.419Z,1360.8560
2022-12-09T01:44:20.782Z,1356.7070
2022-12-09T01:44:31.897Z,1356.7070
2022-12-09T01:44:43.026Z,1356.7070
2022-12-09T01:44:54.291Z,1351.2150
2022-12-09T01:45:05.423Z,1362.2450
2022-12-09T01:45:16.842Z,1365.0310
2022-12-09T01:45:28.134Z,1367.8280
2022-12-09T01:45:39.577Z,1356.7070
2022-12-09T01:45:50.865Z,1365.0310
2022-12-09T01:46:02.547Z,1372.0450
2022-12-09T01:46:14.110Z,1352.5840
2022-12-09T01:46:25.551Z,1356.7070
2022-12-09T01:46:36.831Z,1353.9550
2022-12-09T01:46:48.399Z,1356.7070
2022-12-09T01:47:00.190Z,1355.3300
2022-12-09T01:47:11.465Z,1356.7070
2022-12-09T01:47:22.919Z,1351.2150
2022-12-09T01:47:34.397Z,1352.5840
2022-12-09T01:47:45.972Z,1359.4700
2022-12-09T01:47:57.163Z,1351.2150
2022-12-09T01:48:08.387Z,1352.5840
2022-12-09T01:48:19.482Z,1356.7070
2022-12-09T01:48:31.056Z,1367.8280
2022-12-09T01:48:42.295Z,1359.4700
2022-12-09T01:48:53.478Z,1358.0870
2022-12-09T01:49:04.498Z,1355.3300
2022-12-09T01:49:16.045Z,1366.4280
2022-12-09T01:49:27.148Z,1363.6360
2022-12-09T01:49:38.552Z,1359.4700
2022-12-09T01:49:49.973Z,1365.0310
2022-12-09T01:50:01.499Z,1359.4700
2022-12-09T01:50:12.731Z,1353.9550
2022-12-09T01:50:24.132Z,1356.7070
2022-12-09T01:50:35.572Z,1360.8560
2022-12-09T01:50:46.884Z,1356.7070
2022-12-09T01:50:58.354Z,1363.6360
2022-12-09T01:51:09.457Z,1359.4700
2022-12-09T01:51:20.477Z,1359.4700
2022-12-09T01:51:31.682Z,1359.4700
2022-12-09T01:51:42.984Z,1356.7070
2022-12-09T01:51:54.556Z,1359.4700
2022-12-09T01:52:05.935Z,1362.2450
2022-12-09T01:52:17.471Z,1360.8560
2022-12-09T01:52:28.929Z,1358.0870
2022-12-09T01:52:40.284Z,1358.0870
2022-12-09T01:52:51.684Z,1359.4700
2022-12-09T01:53:02.776Z,1359.4700
2022-12-09T01:53:14.117Z,1359.4700
2022-12-09T01:53:25.218Z,1359.4700
2022-12-09T01:53:36.319Z,1360.8560
2022-12-09T01:53:47.688Z,1365.0310
2022-12-09T01:53:58.884Z,1359.4700
2022-12-09T01:54:09.933Z,1359.4700
2022-12-09T01:54:21.011Z,1365.0310
2022-12-09T01:54:32.161Z,1353.9550
2022-12-09T01:54:43.347Z,1367.8280
2022-12-09T01:54:54.740Z,1360.8560
2022-12-09T01:55:06.120Z,1365.0310
2022-12-09T01:55:17.523Z,1365.0310
2022-12-09T01:55:28.863Z,1367.8280
2022-12-09T01:55:39.984Z,1353.9550
2022-12-09T01:55:51.116Z,1360.8560
2022-12-09T01:56:02.190Z,1362.2450
2022-12-09T01:56:13.263Z,1365.0310
2022-12-09T01:56:24.320Z,1363.6360
2022-12-09T01:56:35.400Z,1367.8280
2022-12-09T01:56:46.562Z,1367.8280
2022-12-09T01:56:57.957Z,1365.0310
2022-12-09T01:57:09.562Z,1363.6360
2022-12-09T01:57:20.857Z,1353.9550
2022-12-09T01:57:32.302Z,1358.0870
2022-12-09T01:57:43.840Z,1359.4700
2022-12-09T01:57:55.472Z,1365.0310
2022-12-09T01:58:06.991Z,1349.8480
2022-12-09T01:58:18.307Z,1358.0870
2022-12-09T01:58:29.777Z,1366.4280
2022-12-09T01:58:41.093Z,1359.4700
2022-12-09T01:58:52.141Z,1360.8560
2022-12-09T01:59:03.603Z,1359.4700
2022-12-09T01:59:15.151Z,1355.3300
2022-12-09T01:59:26.607Z,1352.5840
2022-12-09T01:59:37.842Z,1360.8560
2022-12-09T01:59:49.202Z,1360.8560
2022-12-09T02:00:00.487Z,1367.8280
2022-12-09T02:00:11.977Z,1353.9550
2022-12-09T02:00:23.552Z,1359.4700
2022-12-09T02:00:34.728Z,1353.9550
2022-12-09T02:00:45.793Z,1365.0310
2022-12-09T02:00:57.054Z,1358.0870
2022-12-09T02:01:08.510Z,1367.8280
2022-12-09T02:01:20.018Z,1363.6360
2022-12-09T02:01:31.493Z,1359.4700
2022-12-09T02:01:43.188Z,1376.2889
2022-12-09T02:01:54.876Z,1360.8560
2022-12-09T02:02:06.259Z,1365.0310
2022-12-09T02:02:17.792Z,1363.6360
2022-12-09T02:02:29.648Z,1358.0870
2022-12-09T02:02:41.225Z,1358.0870
2022-12-09T02:02:53.402Z,1363.6360
2022-12-09T02:03:04.871Z,1352.5840
2022-12-09T02:03:16.459Z,1359.4700
2022-12-09T02:03:27.899Z,1360.8560
2022-12-09T02:03:39.151Z,1359.4700
2022-12-09T02:03:50.693Z,1360.8560
2022-12-09T02:04:02.308Z,1360.8560
2022-12-09T02:04:13.677Z,1365.0310
2022-12-09T02:04:24.900Z,1359.4700
2022-12-09T02:04:36.161Z,1362.2450
2022-12-09T02:04:47.322Z,1369.2310
2022-12-09T02:04:58.604Z,1359.4700
2022-12-09T02:05:09.942Z,1359.4700
2022-12-09T02:05:21.225Z,1349.8480
2022-12-09T02:05:33.248Z,1356.7070
2022-12-09T02:05:44.563Z,1362.2450
2022-12-09T02:05:55.629Z,1351.2150
2022-12-09T02:06:06.820Z,1365.0310
2022-12-09T02:06:18.048Z,1363.6360
2022-12-09T02:06:29.388Z,1362.2450
2022-12-09T02:06:40.468Z,1366.4280
2022-12-09T02:06:51.549Z,1365.0310
2022-12-09T02:07:02.658Z,1365.0310
2022-12-09T02:07:13.930Z,1374.8710
2022-12-09T02:07:25.191Z,1365.0310
2022-12-09T02:07:36.269Z,1370.6370
2022-12-09T02:07:47.712Z,1360.8560
2022-12-09T02:07:59.270Z,1370.6370
2022-12-09T02:08:10.650Z,1365.0310
2022-12-09T02:08:21.895Z,1372.0450
2022-12-09T02:08:33.350Z,1360.8560
2022-12-09T02:08:44.841Z,1360.8560
2022-12-09T02:08:56.437Z,1366.4280